createdAt,value
2023-04-12T00:01:13.836Z,4.43
2023-04-12T00:03:40.434Z,4.43
2023-04-12T00:06:07.408Z,4.48
2023-04-12T00:08:34.146Z,4.57
2023-04-12T00:11:02.184Z,4.52
2023-04-12T00:13:29.751Z,4.50
2023-04-12T00:15:56.097Z,4.39
2023-04-12T00:18:22.523Z,4.45
2023-04-12T00:20:49.010Z,4.41
2023-04-12T00:23:15.427Z,4.33
2023-04-12T00:25:41.722Z,4.26
2023-04-12T00:28:08.033Z,4.21
2023-04-12T00:30:34.431Z,4.26
2023-04-12T00:33:00.788Z,4.23
2023-04-12T00:35:27.178Z,4.27
2023-04-12T00:37:53.616Z,4.24
2023-04-12T00:40:20.024Z,4.25
2023-04-12T00:42:46.443Z,4.24
2023-04-12T00:45:14.368Z,4.25
2023-04-12T00:47:41.408Z,4.28
2023-04-12T00:50:08.451Z,4.37
2023-04-12T00:52:35.169Z,4.31
2023-04-12T00:55:04.263Z,4.37
2023-04-12T00:57:35.783Z,4.31
2023-04-12T01:00:03.446Z,4.36
2023-04-12T01:02:30.082Z,4.22
2023-04-12T01:04:57.381Z,4.36
2023-04-12T01:07:47.511Z,4.35
2023-04-12T01:10:22.608Z,4.37
2023-04-12T01:13:07.153Z,4.41
2023-04-12T01:15:39.600Z,4.39
2023-04-12T01:18:09.210Z,4.42
2023-04-12T01:20:40.440Z,4.43
2023-04-12T01:23:34.552Z,4.49
2023-04-12T01:26:17.095Z,4.51
2023-04-12T01:28:45.651Z,4.50
2023-04-12T01:31:13.532Z,4.51
2023-04-12T01:33:43.506Z,4.46
2023-04-12T01:36:21.241Z,4.52
2023-04-12T01:38:48.917Z,4.56
2023-04-12T01:41:15.927Z,4.55
2023-04-12T01:43:46.994Z,4.64
2023-04-12T01:46:15.871Z,4.65
2023-04-12T01:48:48.460Z,4.64
2023-04-12T01:51:25.253Z,4.67
2023-04-12T01:53:59.969Z,4.75
2023-04-12T01:56:31.591Z,4.74
2023-04-12T01:58:59.494Z,4.77
2023-04-12T02:01:26.093Z,4.78
2023-04-12T02:03:53.783Z,4.82
2023-04-12T02:06:22.990Z,4.84
2023-04-12T02:08:49.719Z,4.81
2023-04-12T02:11:16.023Z,4.73
2023-04-12T02:13:42.452Z,4.73
2023-04-12T02:16:08.992Z,4.71
2023-04-12T02:18:35.333Z,4.75
2023-04-12T02:21:01.816Z,4.73
2023-04-12T02:23:28.247Z,4.75
2023-04-12T02:25:54.549Z,4.78
2023-04-12T02:28:20.926Z,4.73
2023-04-12T02:30:47.256Z,4.70
2023-04-12T02:33:14.086Z,4.81
2023-04-12T02:35:40.436Z,4.89
2023-04-12T02:38:06.992Z,4.82
2023-04-12T02:40:43.087Z,4.75
2023-04-12T02:43:10.038Z,4.72
2023-04-12T02:45:36.417Z,4.87
2023-04-12T02:48:02.838Z,4.80
2023-04-12T02:50:29.345Z,4.85
2023-04-12T02:52:55.652Z,4.80
2023-04-12T02:55:22.315Z,4.90
2023-04-12T02:57:48.648Z,4.92
2023-04-12T03:00:15.317Z,4.96
2023-04-12T03:02:42.512Z,4.92
2023-04-12T03:05:09.543Z,4.97
2023-04-12T03:07:36.710Z,5.02
2023-04-12T03:10:03.422Z,4.99
2023-04-12T03:12:29.719Z,4.94
2023-04-12T03:14:56.423Z,4.97
2023-04-12T03:17:23.013Z,4.99
2023-04-12T03:19:49.412Z,5.00
2023-04-12T03:22:16.092Z,5.05
2023-04-12T03:24:42.448Z,5.02
2023-04-12T03:27:08.888Z,5.08
2023-04-12T03:29:35.280Z,5.02
2023-04-12T03:32:01.597Z,5.05
2023-04-12T03:34:28.488Z,5.05
2023-04-12T03:36:55.145Z,5.09
2023-04-12T03:39:21.874Z,5.08
2023-04-12T03:41:48.293Z,5.11
2023-04-12T03:44:14.743Z,5.14
2023-04-12T03:46:41.207Z,5.11
2023-04-12T03:49:07.689Z,5.14
2023-04-12T03:51:34.025Z,5.22
2023-04-12T03:54:00.425Z,5.18
2023-04-12T03:56:26.819Z,5.12
2023-04-12T03:58:53.294Z,5.21
2023-04-12T04:01:19.847Z,5.13
2023-04-12T04:03:46.683Z,5.19
2023-04-12T04:06:13.362Z,5.15
2023-04-12T04:08:39.703Z,5.21
2023-04-12T04:11:08.478Z,5.23
2023-04-12T04:13:35.566Z,5.20
2023-04-12T04:16:06.877Z,5.30
2023-04-12T04:18:33.323Z,5.27
2023-04-12T04:20:59.709Z,5.33
2023-04-12T04:23:26.350Z,5.33
2023-04-12T04:25:52.720Z,5.33
2023-04-12T04:28:19.200Z,5.44
2023-04-12T04:30:45.762Z,5.36
2023-04-12T04:33:12.878Z,5.37
2023-04-12T04:35:40.335Z,5.42
2023-04-12T04:38:06.754Z,5.50
2023-04-12T04:40:33.152Z,5.47
2023-04-12T04:42:59.648Z,5.49
2023-04-12T04:45:26.701Z,5.49
2023-04-12T04:47:53.918Z,5.64
2023-04-12T04:50:24.396Z,5.62
2023-04-12T04:52:51.231Z,5.55
2023-04-12T04:55:18.245Z,5.61
2023-04-12T04:57:44.814Z,5.67
2023-04-12T05:00:12.587Z,5.75
2023-04-12T05:02:39.210Z,5.78
2023-04-12T05:05:10.493Z,5.77
2023-04-12T05:07:36.814Z,5.92
2023-04-12T05:10:04.746Z,6.04
2023-04-12T05:12:31.180Z,6.07
2023-04-12T05:15:10.628Z,6.22
2023-04-12T05:17:37.972Z,6.36
2023-04-12T05:20:04.931Z,6.46
2023-04-12T05:22:31.534Z,6.60
2023-04-12T05:24:58.273Z,6.69
2023-04-12T05:27:24.644Z,6.86
2023-04-12T05:29:50.968Z,7.06
2023-04-12T05:32:17.721Z,7.12
2023-04-12T05:34:44.037Z,7.32
2023-04-12T05:37:10.792Z,7.46
2023-04-12T05:39:37.196Z,7.62
2023-04-12T05:42:04.137Z,7.65
2023-04-12T05:44:31.216Z,7.78
2023-04-12T05:46:57.651Z,8.13
2023-04-12T05:49:23.951Z,8.31
2023-04-12T05:51:50.488Z,8.19
2023-04-12T05:54:16.838Z,8.22
2023-04-12T05:56:43.516Z,8.32
2023-04-12T05:59:09.895Z,8.50
2023-04-12T06:01:36.617Z,8.43
2023-04-12T06:04:03.264Z,8.48
2023-04-12T06:06:29.926Z,8.76
2023-04-12T06:08:57.940Z,8.86
2023-04-12T06:11:24.424Z,8.70
2023-04-12T06:13:50.821Z,8.81
2023-04-12T06:16:17.242Z,8.86
2023-04-12T06:18:43.833Z,9.29
2023-04-12T06:21:10.345Z,9.49
2023-04-12T06:23:36.805Z,9.34
2023-04-12T06:26:03.387Z,9.40
2023-04-12T06:28:29.864Z,9.16
2023-04-12T06:30:56.330Z,9.23
2023-04-12T06:33:22.691Z,9.21
2023-04-12T06:35:50.641Z,9.07
2023-04-12T06:38:18.208Z,9.61
2023-04-12T06:40:44.888Z,9.56
2023-04-12T06:43:12.470Z,10.01
2023-04-12T06:45:38.773Z,9.61
2023-04-12T06:48:05.328Z,9.82
2023-04-12T06:50:31.817Z,9.51
2023-04-12T06:52:58.188Z,9.88
2023-04-12T06:55:25.694Z,9.59
2023-04-12T06:57:52.033Z,9.55
2023-04-12T07:00:19.146Z,9.37
2023-04-12T07:02:45.611Z,9.47
2023-04-12T07:05:14.242Z,9.69
2023-04-12T07:07:40.626Z,9.56
2023-04-12T07:10:07.731Z,9.57
2023-04-12T07:12:34.464Z,9.50
2023-04-12T07:15:00.841Z,9.27
2023-04-12T07:17:27.560Z,9.84
2023-04-12T07:19:54.850Z,9.76
2023-04-12T07:22:21.207Z,10.18
2023-04-12T07:24:49.326Z,10.45
2023-04-12T07:27:15.755Z,10.19
2023-04-12T07:29:42.297Z,10.01
2023-04-12T07:32:10.263Z,9.84
2023-04-12T07:34:37.486Z,10.18
2023-04-12T07:37:04.112Z,10.21
2023-04-12T07:39:30.574Z,10.17
2023-04-12T07:41:57.545Z,10.19
2023-04-12T07:44:23.892Z,10.29
2023-04-12T07:46:50.204Z,10.49
2023-04-12T07:49:16.883Z,10.56
2023-04-12T07:51:44.653Z,10.28
2023-04-12T07:54:11.340Z,10.58
2023-04-12T07:56:37.673Z,10.65
2023-04-12T07:59:04.091Z,10.65
2023-04-12T08:01:30.472Z,10.71
2023-04-12T08:03:57.480Z,10.86
2023-04-12T08:06:24.024Z,11.19
2023-04-12T08:08:50.442Z,11.26
2023-04-12T08:11:16.935Z,11.26
2023-04-12T08:13:43.286Z,11.20
2023-04-12T08:16:10.015Z,10.91
2023-04-12T08:18:36.692Z,10.86
2023-04-12T08:21:03.418Z,10.92
2023-04-12T08:23:29.884Z,10.91
2023-04-12T08:25:56.337Z,10.63
2023-04-12T08:28:22.868Z,10.72
2023-04-12T08:30:49.522Z,10.59
2023-04-12T08:33:15.860Z,10.95
2023-04-12T08:35:42.662Z,10.53
2023-04-12T08:38:09.003Z,10.61
2023-04-12T08:40:35.622Z,10.71
2023-04-12T08:43:02.829Z,10.61
2023-04-12T08:45:29.990Z,10.45
2023-04-12T08:47:57.301Z,10.28
2023-04-12T08:50:25.314Z,10.31
2023-04-12T08:52:52.278Z,10.27
2023-04-12T08:55:19.795Z,10.07
2023-04-12T08:57:47.807Z,10.09
2023-04-12T09:00:15.776Z,10.05
2023-04-12T09:02:42.632Z,10.42
2023-04-12T09:05:10.093Z,10.20
2023-04-12T09:07:36.893Z,10.53
2023-04-12T09:10:05.505Z,10.01
2023-04-12T09:12:31.994Z,10.29
2023-04-12T09:15:10.996Z,10.59
2023-04-12T09:17:37.386Z,10.26
2023-04-12T09:20:14.543Z,10.42
2023-04-12T09:22:40.912Z,10.77
2023-04-12T09:25:07.971Z,10.98
2023-04-12T09:27:48.120Z,10.80
2023-04-12T09:30:19.200Z,10.79
2023-04-12T09:32:46.199Z,10.47
2023-04-12T09:35:12.929Z,10.78
2023-04-12T09:37:39.417Z,10.68
2023-04-12T09:40:07.976Z,10.68
2023-04-12T09:42:36.425Z,10.37
2023-04-12T09:45:23.211Z,10.62
2023-04-12T09:47:50.399Z,10.38
2023-04-12T09:50:21.789Z,10.21
2023-04-12T09:52:48.386Z,10.23
2023-04-12T09:55:15.884Z,10.36
2023-04-12T09:57:43.717Z,10.30
2023-04-12T10:00:14.117Z,10.50
2023-04-12T10:02:45.024Z,10.81
2023-04-12T10:05:14.529Z,10.67
2023-04-12T10:07:41.662Z,10.66
2023-04-12T10:10:09.518Z,10.79
2023-04-12T10:12:36.931Z,10.76
2023-04-12T10:15:07.896Z,10.98
2023-04-12T10:17:35.504Z,11.09
2023-04-12T10:20:03.206Z,11.25
2023-04-12T10:22:29.556Z,11.10
2023-04-12T10:24:57.117Z,11.34
2023-04-12T10:27:27.248Z,11.37
2023-04-12T10:29:54.523Z,11.15
2023-04-12T10:32:22.537Z,11.20
2023-04-12T10:34:58.118Z,11.18
2023-04-12T10:38:00.768Z,11.46
2023-04-12T10:40:28.355Z,11.36
2023-04-12T10:43:25.095Z,11.28
2023-04-12T10:45:51.433Z,11.14
2023-04-12T10:48:30.439Z,11.26
2023-04-12T10:51:20.081Z,11.58
2023-04-12T10:53:49.772Z,11.36
2023-04-12T10:56:32.522Z,11.32
2023-04-12T10:59:04.469Z,11.33
2023-04-12T11:01:31.965Z,11.32
2023-04-12T11:04:17.243Z,11.28
2023-04-12T11:06:56.782Z,11.43
2023-04-12T11:09:33.992Z,11.66
2023-04-12T11:12:08.109Z,11.93
2023-04-12T11:14:47.326Z,11.95
2023-04-12T11:17:13.745Z,11.99
2023-04-12T11:19:43.048Z,11.72
2023-04-12T11:22:11.380Z,11.75
2023-04-12T11:24:43.694Z,11.51
2023-04-12T11:27:10.870Z,11.38
2023-04-12T11:29:37.243Z,11.67
2023-04-12T11:32:04.891Z,11.60
2023-04-12T11:34:36.090Z,11.78
2023-04-12T11:37:04.038Z,11.88
2023-04-12T11:39:32.026Z,11.74
2023-04-12T11:42:00.152Z,11.65
2023-04-12T11:44:26.887Z,11.32
2023-04-12T11:46:54.140Z,11.58
2023-04-12T11:49:21.470Z,11.64
2023-04-12T11:51:49.661Z,11.65
2023-04-12T11:54:16.175Z,11.43
2023-04-12T11:56:42.516Z,11.49
2023-04-12T11:59:09.651Z,11.91
2023-04-12T12:01:36.616Z,11.58
2023-04-12T12:04:03.954Z,11.62
2023-04-12T12:06:31.848Z,11.93
2023-04-12T12:08:58.804Z,11.51
2023-04-12T12:11:25.357Z,11.38
2023-04-12T12:13:56.058Z,11.56
2023-04-12T12:16:27.874Z,11.52
2023-04-12T12:18:54.849Z,11.57
2023-04-12T12:21:21.696Z,12.07
2023-04-12T12:23:49.396Z,12.44
2023-04-12T12:26:25.022Z,12.18
2023-04-12T12:28:53.109Z,12.23
2023-04-12T12:31:24.505Z,12.89
2023-04-12T12:33:59.038Z,12.82
2023-04-12T12:36:36.918Z,12.86
2023-04-12T12:39:07.914Z,13.24
2023-04-12T12:41:34.776Z,13.64
2023-04-12T12:44:01.214Z,14.16
2023-04-12T12:46:37.365Z,14.34
2023-04-12T12:49:14.196Z,14.06
2023-04-12T12:51:42.182Z,13.84
2023-04-12T12:54:08.608Z,14.11
2023-04-12T12:56:35.736Z,14.53
2023-04-12T12:59:03.162Z,14.38
2023-04-12T13:01:30.132Z,14.34
2023-04-12T13:03:56.654Z,13.81
2023-04-12T13:06:23.474Z,13.81
2023-04-12T13:08:49.980Z,13.81
2023-04-12T13:11:17.934Z,13.38
2023-04-12T13:13:44.804Z,13.18
2023-04-12T13:16:11.255Z,13.32
2023-04-12T13:18:37.810Z,13.18
2023-04-12T13:21:04.254Z,13.20
2023-04-12T13:23:30.576Z,13.05
2023-04-12T13:25:56.990Z,13.17
2023-04-12T13:28:23.421Z,12.93
2023-04-12T13:30:49.758Z,13.03
2023-04-12T13:33:19.990Z,13.00
2023-04-12T13:35:47.774Z,12.79
2023-04-12T13:38:14.213Z,12.87
2023-04-12T13:40:42.111Z,12.86
2023-04-12T13:43:08.461Z,12.91
2023-04-12T13:45:34.890Z,12.85
2023-04-12T13:48:02.021Z,12.93
2023-04-12T13:50:28.488Z,13.04
2023-04-12T13:52:54.826Z,13.41
2023-04-12T13:55:21.403Z,13.79
2023-04-12T13:57:47.765Z,13.66
2023-04-12T14:00:14.836Z,13.68
2023-04-12T14:02:41.255Z,14.16
2023-04-12T14:05:08.438Z,13.78
2023-04-12T14:07:35.317Z,13.82
2023-04-12T14:10:01.877Z,13.84
2023-04-12T14:12:28.189Z,14.04
2023-04-12T14:14:54.745Z,14.04
2023-04-12T14:17:21.321Z,14.02
2023-04-12T14:19:47.743Z,13.74
2023-04-12T14:22:14.308Z,13.71
2023-04-12T14:24:40.711Z,13.88
2023-04-12T14:27:07.149Z,13.55
2023-04-12T14:29:34.166Z,13.80
2023-04-12T14:32:00.613Z,13.60
2023-04-12T14:34:26.957Z,13.89
2023-04-12T14:36:53.991Z,13.82
2023-04-12T14:39:20.305Z,13.84
2023-04-12T14:41:46.725Z,13.42
2023-04-12T14:44:13.026Z,13.66
2023-04-12T14:46:39.744Z,14.22
2023-04-12T14:49:06.435Z,13.83
2023-04-12T14:51:32.736Z,13.48
2023-04-12T14:53:59.251Z,13.12
2023-04-12T14:56:29.798Z,13.44
2023-04-12T14:58:57.617Z,13.14
2023-04-12T15:01:25.565Z,12.89
2023-04-12T15:03:53.139Z,12.75
2023-04-12T15:06:23.511Z,12.59
2023-04-12T15:08:53.625Z,12.58
2023-04-12T15:11:20.656Z,12.58
2023-04-12T15:13:46.956Z,12.46
2023-04-12T15:16:13.320Z,12.36
2023-04-12T15:18:39.932Z,12.35
2023-04-12T15:21:11.136Z,12.70
2023-04-12T15:23:38.839Z,12.62
2023-04-12T15:26:05.742Z,12.68
2023-04-12T15:28:33.224Z,12.61
2023-04-12T15:30:59.536Z,12.53
2023-04-12T15:33:25.971Z,12.70
2023-04-12T15:35:53.592Z,12.82
2023-04-12T15:38:23.393Z,13.20
2023-04-12T15:40:55.349Z,13.15
2023-04-12T15:43:22.728Z,13.34
2023-04-12T15:45:49.585Z,13.17
2023-04-12T15:48:16.187Z,13.16
2023-04-12T15:50:42.591Z,13.42
2023-04-12T15:53:08.903Z,13.50
2023-04-12T15:55:35.448Z,13.13
2023-04-12T15:58:01.921Z,13.30
2023-04-12T16:00:28.600Z,13.02
2023-04-12T16:02:55.223Z,13.18
2023-04-12T16:05:21.997Z,13.44
2023-04-12T16:07:48.337Z,13.23
2023-04-12T16:10:14.664Z,12.92
2023-04-12T16:12:41.000Z,13.09
2023-04-12T16:15:07.815Z,13.36
2023-04-12T16:17:34.171Z,13.16
2023-04-12T16:20:00.774Z,12.87
2023-04-12T16:22:27.159Z,12.68
2023-04-12T16:24:53.520Z,12.92
2023-04-12T16:27:21.710Z,13.06
2023-04-12T16:29:49.870Z,13.05
2023-04-12T16:32:16.249Z,13.27
2023-04-12T16:34:42.604Z,13.30
2023-04-12T16:37:09.182Z,13.13
2023-04-12T16:39:35.567Z,12.71
2023-04-12T16:42:01.913Z,12.86
2023-04-12T16:44:28.468Z,12.79
2023-04-12T16:46:54.928Z,13.34
2023-04-12T16:49:21.333Z,13.15
2023-04-12T16:51:49.527Z,12.78
2023-04-12T16:54:15.961Z,12.81
2023-04-12T16:56:42.363Z,12.93
2023-04-12T16:59:08.786Z,12.76
2023-04-12T17:01:35.370Z,13.40
2023-04-12T17:04:02.483Z,13.12
2023-04-12T17:06:29.338Z,12.75
2023-04-12T17:08:56.252Z,12.60
2023-04-12T17:11:22.824Z,12.56
2023-04-12T17:13:49.236Z,13.11
2023-04-12T17:16:15.627Z,12.91
2023-04-12T17:18:42.127Z,12.18
2023-04-12T17:21:08.632Z,11.81
2023-04-12T17:23:35.586Z,11.54
2023-04-12T17:26:02.963Z,10.97
2023-04-12T17:28:29.770Z,10.76
2023-04-12T17:30:56.347Z,10.58
2023-04-12T17:33:22.764Z,10.35
2023-04-12T17:35:49.129Z,10.14
2023-04-12T17:38:15.509Z,10.08
2023-04-12T17:40:41.839Z,10.02
2023-04-12T17:43:08.228Z,9.95
2023-04-12T17:45:34.637Z,9.85
2023-04-12T17:48:01.077Z,9.84
2023-04-12T17:50:27.858Z,9.78
2023-04-12T17:52:54.236Z,9.63
2023-04-12T17:55:20.684Z,9.74
2023-04-12T17:57:47.043Z,9.69
2023-04-12T18:00:14.054Z,9.53
2023-04-12T18:02:40.785Z,9.61
2023-04-12T18:05:07.614Z,9.52
2023-04-12T18:07:34.083Z,9.57
2023-04-12T18:10:00.452Z,9.49
2023-04-12T18:12:26.812Z,9.51
2023-04-12T18:14:53.317Z,9.44
2023-04-12T18:17:19.828Z,9.33
2023-04-12T18:19:46.204Z,9.26
2023-04-12T18:22:12.650Z,9.24
2023-04-12T18:24:39.018Z,9.21
2023-04-12T18:27:10.588Z,9.07
2023-04-12T18:29:37.178Z,9.07
2023-04-12T18:32:03.528Z,9.01
2023-04-12T18:34:30.282Z,9.07
2023-04-12T18:36:56.646Z,9.01
2023-04-12T18:39:23.149Z,8.95
2023-04-12T18:41:49.573Z,8.92
2023-04-12T18:44:15.932Z,8.90
2023-04-12T18:46:42.318Z,8.87
2023-04-12T18:49:08.748Z,8.79
2023-04-12T18:51:35.341Z,8.73
2023-04-12T18:54:01.922Z,8.74
2023-04-12T18:56:28.339Z,8.68
2023-04-12T18:58:56.451Z,8.63
2023-04-12T19:01:24.282Z,8.57
2023-04-12T19:03:50.875Z,8.51
2023-04-12T19:06:17.456Z,8.48
2023-04-12T19:08:43.905Z,8.41
2023-04-12T19:11:10.271Z,8.30
2023-04-12T19:13:36.599Z,8.28
2023-04-12T19:16:03.122Z,8.18
2023-04-12T19:18:29.478Z,8.15
2023-04-12T19:20:56.417Z,8.16
2023-04-12T19:23:23.047Z,8.15
2023-04-12T19:25:49.347Z,8.11
2023-04-12T19:28:15.711Z,8.02
2023-04-12T19:30:42.080Z,8.13
2023-04-12T19:33:08.547Z,8.15
2023-04-12T19:35:34.919Z,8.24
2023-04-12T19:38:02.275Z,8.77
2023-04-12T19:40:30.943Z,8.71
2023-04-12T19:42:57.521Z,8.92
2023-04-12T19:45:24.220Z,9.18
2023-04-12T19:47:50.692Z,9.37
2023-04-12T19:50:17.155Z,9.62
2023-04-12T19:52:44.191Z,9.66
2023-04-12T19:55:11.145Z,9.60
2023-04-12T19:57:38.477Z,9.29
2023-04-12T20:00:09.632Z,9.06
2023-04-12T20:02:36.195Z,8.75
2023-04-12T20:05:04.133Z,8.45
2023-04-12T20:07:30.483Z,8.24
2023-04-12T20:09:56.824Z,8.15
2023-04-12T20:12:23.179Z,8.00
2023-04-12T20:14:49.560Z,7.91
2023-04-12T20:17:15.910Z,7.73
2023-04-12T20:19:42.245Z,7.51
2023-04-12T20:22:08.624Z,7.47
2023-04-12T20:24:34.996Z,7.39
2023-04-12T20:27:02.112Z,7.29
2023-04-12T20:29:32.567Z,7.31
2023-04-12T20:31:59.043Z,7.32
2023-04-12T20:34:25.373Z,7.32
2023-04-12T20:36:52.010Z,7.38
2023-04-12T20:39:18.422Z,7.54
2023-04-12T20:41:44.952Z,7.60
2023-04-12T20:44:11.255Z,7.51
2023-04-12T20:46:38.831Z,7.49
2023-04-12T20:49:05.313Z,7.43
2023-04-12T20:51:31.748Z,7.44
2023-04-12T20:53:58.447Z,7.43
2023-04-12T20:56:25.699Z,7.54
2023-04-12T20:58:52.250Z,7.38
2023-04-12T21:01:18.700Z,7.35
2023-04-12T21:03:45.255Z,7.19
2023-04-12T21:06:11.736Z,7.20
2023-04-12T21:08:38.383Z,7.14
2023-04-12T21:11:04.937Z,7.09
2023-04-12T21:13:31.383Z,7.03
2023-04-12T21:15:57.772Z,6.97
2023-04-12T21:18:24.102Z,6.82
2023-04-12T21:20:50.599Z,6.73
2023-04-12T21:23:18.081Z,6.82
2023-04-12T21:25:47.673Z,6.83
2023-04-12T21:28:15.290Z,6.84
2023-04-12T21:30:42.235Z,6.69
2023-04-12T21:33:08.671Z,6.75
2023-04-12T21:35:35.274Z,6.50
2023-04-12T21:38:02.576Z,6.62
2023-04-12T21:40:29.094Z,6.63
2023-04-12T21:42:55.453Z,6.62
2023-04-12T21:45:21.995Z,6.52
2023-04-12T21:47:48.553Z,6.47
2023-04-12T21:50:14.914Z,6.44
2023-04-12T21:52:41.338Z,6.39
2023-04-12T21:55:08.000Z,6.17
2023-04-12T21:57:35.290Z,6.29
2023-04-12T22:00:02.558Z,6.12
2023-04-12T22:02:29.200Z,6.15
2023-04-12T22:04:55.822Z,6.07
2023-04-12T22:07:22.492Z,6.08
2023-04-12T22:09:50.378Z,6.03
2023-04-12T22:12:16.711Z,6.02
2023-04-12T22:14:44.743Z,6.00
2023-04-12T22:17:11.614Z,6.02
2023-04-12T22:19:38.330Z,5.93
2023-04-12T22:22:04.708Z,5.89
2023-04-12T22:24:31.054Z,5.80
2023-04-12T22:26:57.509Z,5.77
2023-04-12T22:29:25.049Z,5.75
2023-04-12T22:31:51.396Z,5.66
2023-04-12T22:34:17.759Z,5.61
2023-04-12T22:36:44.217Z,5.61
2023-04-12T22:39:10.710Z,5.62
2023-04-12T22:41:37.032Z,5.64
2023-04-12T22:44:04.186Z,5.59
2023-04-12T22:46:30.665Z,5.50
2023-04-12T22:48:57.431Z,5.42
2023-04-12T22:51:23.848Z,5.37
2023-04-12T22:53:50.143Z,5.32
2023-04-12T22:56:16.673Z,5.39
2023-04-12T22:58:43.071Z,5.38
2023-04-12T23:01:09.534Z,5.42
2023-04-12T23:03:36.439Z,5.37
2023-04-12T23:06:03.035Z,5.27
2023-04-12T23:08:29.666Z,5.30
2023-04-12T23:10:56.516Z,5.25
2023-04-12T23:13:22.816Z,5.32
2023-04-12T23:15:49.238Z,5.34
2023-04-12T23:18:15.558Z,5.26
2023-04-12T23:20:41.999Z,5.25
2023-04-12T23:23:08.359Z,5.15
2023-04-12T23:25:35.125Z,5.30
2023-04-12T23:28:01.534Z,5.24
2023-04-12T23:30:27.938Z,5.24
2023-04-12T23:32:54.363Z,5.25
2023-04-12T23:35:20.818Z,5.32
2023-04-12T23:37:47.177Z,5.29
2023-04-12T23:40:13.834Z,5.29
2023-04-12T23:42:40.363Z,5.24
2023-04-12T23:45:07.612Z,5.56
2023-04-12T23:47:34.044Z,5.53
2023-04-12T23:50:00.503Z,5.39
2023-04-12T23:52:26.848Z,5.29
2023-04-12T23:54:53.244Z,5.25
2023-04-12T23:57:19.537Z,5.29
2023-04-12T23:59:46.052Z,5.29
